ASA1620 KSEA-KLAX
Flight info
| Callsign | ASA1620 |
|---|---|
| Flight time | 2h 12m |
| Altitude | 33000 |
| Route | OZWLD1 OZWLD KPOWW SEA152033 JINMO Q7 JAGWA BURGL IRNMN2 |
| Aircraft | B739/M-SDE2E3FGHIRWXY/LB1 |
Departure
| Time | 2026-04-20 00:00 |
|---|---|
| Airport | Seattle–Tacoma International Airport (KSEA) |
Arrival
| Time | 2026-04-20 02:13 |
|---|---|
| Airport | Los Angeles International Airport (KLAX) |
| Time | Latitude | Longitude | Altitude | Speed | Heading |
|---|---|---|---|---|---|
| 2026-04-19 23:35 | 47.43897 | -122.30034 | 431 ft | 0 kts | 267° |
| 2026-04-19 23:49 | 47.43898 | -122.30021 | 423 ft | 4 kts | 275° |
| 2026-04-19 23:49 | 47.43892 | -122.29984 | 427 ft | 4 kts | 285° |
| 2026-04-19 23:49 | 47.43881 | -122.29954 | 417 ft | 4 kts | 330° |
| 2026-04-19 23:49 | 47.43857 | -122.29946 | 421 ft | 4 kts | 5° |
| 2026-04-19 23:50 | 47.43846 | -122.29948 | 422 ft | 1 kts | 9° |
| 2026-04-19 23:53 | 47.43848 | -122.29948 | 421 ft | 1 kts | 9° |
| 2026-04-19 23:53 | 47.43881 | -122.29940 | 423 ft | 7 kts | 9° |
| 2026-04-19 23:53 | 47.43933 | -122.29951 | 424 ft | 9 kts | 329° |
| 2026-04-19 23:54 | 47.43992 | -122.30037 | 431 ft | 14 kts | 314° |
| 2026-04-19 23:54 | 47.44032 | -122.30170 | 431 ft | 15 kts | 261° |
| 2026-04-19 23:54 | 47.43989 | -122.30303 | 421 ft | 14 kts | 250° |
| 2026-04-19 23:54 | 47.43975 | -122.30444 | 431 ft | 14 kts | 268° |
| 2026-04-19 23:55 | 47.43947 | -122.30580 | 421 ft | 14 kts | 229° |
| 2026-04-19 23:55 | 47.43856 | -122.30629 | 428 ft | 16 kts | 181° |
| 2026-04-19 23:55 | 47.43776 | -122.30630 | 423 ft | 18 kts | 180° |
| 2026-04-19 23:55 | 47.43655 | -122.30629 | 422 ft | 17 kts | 174° |
| 2026-04-19 23:56 | 47.43547 | -122.30561 | 423 ft | 17 kts | 158° |
| 2026-04-19 23:56 | 47.43435 | -122.30551 | 419 ft | 16 kts | 181° |
| 2026-04-19 23:56 | 47.43326 | -122.30552 | 430 ft | 15 kts | 180° |
| 2026-04-19 23:56 | 47.43193 | -122.30587 | 422 ft | 14 kts | 210° |
| 2026-04-19 23:57 | 47.43157 | -122.30648 | 419 ft | 8 kts | 250° |
| 2026-04-19 23:57 | 47.43155 | -122.30664 | 420 ft | 0 kts | 263° |
| 2026-04-19 23:59 | 47.43155 | -122.30668 | 420 ft | 2 kts | 265° |
| 2026-04-19 23:59 | 47.43156 | -122.30757 | 418 ft | 13 kts | 272° |
| 2026-04-19 23:59 | 47.43176 | -122.30802 | 420 ft | 6 kts | 343° |
| 2026-04-19 23:59 | 47.43376 | -122.30803 | 424 ft | 62 kts | 360° |
| 2026-04-20 00:00 | 47.43964 | -122.30825 | 424 ft | 101 kts | 353° |
| 2026-04-20 00:00 | 47.44815 | -122.30808 | 436 ft | 147 kts | 0° |
| 2026-04-20 00:00 | 47.45961 | -122.30738 | 677 ft | 183 kts | 2° |
| 2026-04-20 00:00 | 47.47277 | -122.30603 | 1461 ft | 189 kts | 2° |
| 2026-04-20 00:01 | 47.48606 | -122.30612 | 2292 ft | 196 kts | 360° |
| 2026-04-20 00:01 | 47.50001 | -122.30721 | 2936 ft | 206 kts | 359° |
| 2026-04-20 00:01 | 47.53175 | -122.30896 | 3533 ft | 249 kts | 0° |
| 2026-04-20 00:02 | 47.54917 | -122.31013 | 4249 ft | 251 kts | 354° |
| 2026-04-20 00:02 | 47.56551 | -122.31970 | 4955 ft | 260 kts | 327° |
| 2026-04-20 00:02 | 47.58105 | -122.33542 | 5385 ft | 279 kts | 324° |
| 2026-04-20 00:02 | 47.59700 | -122.35250 | 6074 ft | 284 kts | 316° |
| 2026-04-20 00:03 | 47.60813 | -122.37597 | 6844 ft | 279 kts | 289° |
| 2026-04-20 00:03 | 47.61307 | -122.40387 | 7493 ft | 282 kts | 278° |
| 2026-04-20 00:03 | 47.61637 | -122.43267 | 8200 ft | 284 kts | 276° |
| 2026-04-20 00:03 | 47.61617 | -122.46171 | 8875 ft | 283 kts | 252° |
| 2026-04-20 00:04 | 47.60731 | -122.48741 | 9573 ft | 280 kts | 230° |
| 2026-04-20 00:04 | 47.59435 | -122.50864 | 10223 ft | 283 kts | 223° |
| 2026-04-20 00:04 | 47.57978 | -122.52990 | 10458 ft | 304 kts | 223° |
| 2026-04-20 00:04 | 47.56416 | -122.55268 | 10634 ft | 325 kts | 223° |
| 2026-04-20 00:05 | 47.54764 | -122.57712 | 10790 ft | 346 kts | 223° |
| 2026-04-20 00:05 | 47.53031 | -122.60295 | 11109 ft | 359 kts | 224° |
| 2026-04-20 00:05 | 47.51271 | -122.62937 | 11739 ft | 361 kts | 224° |
| 2026-04-20 00:05 | 47.49330 | -122.65284 | 12393 ft | 361 kts | 206° |
| 2026-04-20 00:06 | 47.46934 | -122.66247 | 13046 ft | 360 kts | 182° |
| 2026-04-20 00:06 | 47.44441 | -122.65852 | 13696 ft | 363 kts | 166° |
| 2026-04-20 00:06 | 47.42122 | -122.64451 | 14212 ft | 369 kts | 151° |
| 2026-04-20 00:06 | 47.39947 | -122.62409 | 14776 ft | 372 kts | 148° |
| 2026-04-20 00:07 | 47.37757 | -122.60242 | 15326 ft | 376 kts | 148° |
| 2026-04-20 00:07 | 47.35614 | -122.58100 | 15859 ft | 379 kts | 148° |
| 2026-04-20 00:07 | 47.33423 | -122.55917 | 16388 ft | 381 kts | 148° |
| 2026-04-20 00:07 | 47.31204 | -122.53723 | 16904 ft | 384 kts | 148° |
| 2026-04-20 00:08 | 47.28973 | -122.51533 | 17441 ft | 387 kts | 148° |
| 2026-04-20 00:08 | 47.26717 | -122.49329 | 17948 ft | 390 kts | 148° |
| 2026-04-20 00:08 | 47.24446 | -122.47118 | 18421 ft | 393 kts | 148° |
| 2026-04-20 00:08 | 47.22153 | -122.44891 | 18860 ft | 395 kts | 148° |
| 2026-04-20 00:09 | 47.19849 | -122.42657 | 19310 ft | 398 kts | 148° |
| 2026-04-20 00:09 | 47.17528 | -122.40409 | 19742 ft | 401 kts | 148° |
| 2026-04-20 00:09 | 47.15223 | -122.38179 | 20173 ft | 403 kts | 148° |
| 2026-04-20 00:09 | 47.12872 | -122.35907 | 20612 ft | 406 kts | 148° |
| 2026-04-20 00:10 | 47.10500 | -122.33617 | 21043 ft | 409 kts | 148° |
| 2026-04-20 00:10 | 47.08111 | -122.31313 | 21468 ft | 411 kts | 148° |
| 2026-04-20 00:10 | 47.05713 | -122.29003 | 21870 ft | 414 kts | 148° |
| 2026-04-20 00:10 | 47.03292 | -122.26671 | 22274 ft | 417 kts | 148° |
| 2026-04-20 00:11 | 47.00864 | -122.24336 | 22680 ft | 419 kts | 148° |
| 2026-04-20 00:11 | 46.98412 | -122.21983 | 23056 ft | 422 kts | 148° |
| 2026-04-20 00:11 | 46.95991 | -122.19517 | 23416 ft | 426 kts | 145° |
| 2026-04-20 00:11 | 46.93626 | -122.16874 | 23757 ft | 428 kts | 144° |
| 2026-04-20 00:12 | 46.91143 | -122.14593 | 24046 ft | 428 kts | 156° |
| 2026-04-20 00:12 | 46.88337 | -122.13161 | 24373 ft | 427 kts | 168° |
| 2026-04-20 00:12 | 46.85398 | -122.12551 | 24717 ft | 428 kts | 179° |
| 2026-04-20 00:12 | 46.82421 | -122.12549 | 25054 ft | 429 kts | 181° |
| 2026-04-20 00:13 | 46.79424 | -122.12584 | 25375 ft | 431 kts | 181° |
| 2026-04-20 00:13 | 46.76407 | -122.12611 | 25691 ft | 433 kts | 181° |
| 2026-04-20 00:13 | 46.73391 | -122.12625 | 25988 ft | 435 kts | 180° |
| 2026-04-20 00:13 | 46.70359 | -122.12626 | 26309 ft | 436 kts | 180° |
| 2026-04-20 00:14 | 46.67319 | -122.12620 | 26590 ft | 438 kts | 180° |
| 2026-04-20 00:14 | 46.64261 | -122.12609 | 26854 ft | 440 kts | 180° |
| 2026-04-20 00:14 | 46.61188 | -122.12597 | 27160 ft | 442 kts | 180° |
| 2026-04-20 00:14 | 46.58149 | -122.12584 | 27473 ft | 443 kts | 180° |
| 2026-04-20 00:15 | 46.55060 | -122.12571 | 27776 ft | 444 kts | 180° |
| 2026-04-20 00:15 | 46.51967 | -122.12558 | 28175 ft | 443 kts | 180° |
| 2026-04-20 00:15 | 46.48896 | -122.12546 | 28651 ft | 441 kts | 180° |
| 2026-04-20 00:15 | 46.45823 | -122.12534 | 29105 ft | 439 kts | 180° |
| 2026-04-20 00:16 | 46.42765 | -122.12522 | 29479 ft | 438 kts | 181° |
| 2026-04-20 00:16 | 46.39721 | -122.12509 | 29874 ft | 438 kts | 181° |
| 2026-04-20 00:16 | 46.36674 | -122.12417 | 30264 ft | 436 kts | 176° |
| 2026-04-20 00:16 | 46.33671 | -122.11820 | 30632 ft | 435 kts | 172° |
| 2026-04-20 00:17 | 46.30683 | -122.11078 | 30962 ft | 434 kts | 172° |
| 2026-04-20 00:17 | 46.27709 | -122.10327 | 31267 ft | 433 kts | 172° |
| 2026-04-20 00:17 | 46.24778 | -122.09591 | 31592 ft | 432 kts | 172° |
| 2026-04-20 00:17 | 46.21814 | -122.08857 | 31935 ft | 431 kts | 172° |
| 2026-04-20 00:18 | 46.18864 | -122.08137 | 32252 ft | 430 kts | 172° |
| 2026-04-20 00:18 | 46.15918 | -122.07424 | 32541 ft | 429 kts | 172° |
| 2026-04-20 00:18 | 46.12980 | -122.06719 | 32821 ft | 428 kts | 172° |
| 2026-04-20 00:19 | 46.07099 | -122.05316 | 32907 ft | 429 kts | 172° |
| 2026-04-20 00:19 | 46.01204 | -122.03914 | 32917 ft | 428 kts | 172° |
| 2026-04-20 00:20 | 45.95367 | -122.02529 | 32910 ft | 427 kts | 172° |
| 2026-04-20 00:20 | 45.89494 | -122.01138 | 32913 ft | 427 kts | 172° |
| 2026-04-20 00:21 | 45.83642 | -121.99755 | 32897 ft | 426 kts | 172° |
| 2026-04-20 00:21 | 45.77816 | -121.98380 | 32913 ft | 426 kts | 172° |
| 2026-04-20 00:22 | 45.71967 | -121.97004 | 32911 ft | 425 kts | 172° |
| 2026-04-20 00:22 | 45.66127 | -121.95632 | 32905 ft | 425 kts | 172° |
| 2026-04-20 00:23 | 45.60285 | -121.94263 | 32886 ft | 425 kts | 172° |
| 2026-04-20 00:23 | 45.54451 | -121.92899 | 32898 ft | 424 kts | 172° |
| 2026-04-20 00:24 | 45.48633 | -121.91540 | 32880 ft | 424 kts | 172° |
| 2026-04-20 00:24 | 45.42850 | -121.90193 | 32908 ft | 423 kts | 172° |
| 2026-04-20 00:25 | 45.38014 | -121.89069 | 32904 ft | 423 kts | 172° |
| 2026-04-20 00:25 | 45.31226 | -121.87494 | 32911 ft | 422 kts | 172° |
| 2026-04-20 00:26 | 45.25421 | -121.86150 | 32917 ft | 422 kts | 172° |
| 2026-04-20 00:26 | 45.19658 | -121.84819 | 32889 ft | 422 kts | 172° |
| 2026-04-20 00:27 | 45.13860 | -121.83483 | 32922 ft | 422 kts | 172° |
| 2026-04-20 00:27 | 45.08050 | -121.82146 | 32891 ft | 422 kts | 172° |
| 2026-04-20 00:28 | 45.03222 | -121.81038 | 32901 ft | 422 kts | 172° |
| 2026-04-20 00:28 | 44.96445 | -121.79484 | 32909 ft | 422 kts | 172° |
| 2026-04-20 00:29 | 44.90683 | -121.78167 | 32915 ft | 421 kts | 172° |
| 2026-04-20 00:29 | 44.84898 | -121.76847 | 32918 ft | 421 kts | 172° |
| 2026-04-20 00:30 | 44.79118 | -121.75531 | 32907 ft | 421 kts | 172° |
| 2026-04-20 00:30 | 44.73331 | -121.74216 | 32902 ft | 420 kts | 173° |
| 2026-04-20 00:31 | 44.67557 | -121.72906 | 32922 ft | 420 kts | 172° |
| 2026-04-20 00:31 | 44.61786 | -121.71600 | 32916 ft | 420 kts | 172° |
| 2026-04-20 00:32 | 44.56056 | -121.70306 | 32909 ft | 419 kts | 172° |
| 2026-04-20 00:32 | 44.50304 | -121.69009 | 32920 ft | 418 kts | 172° |
| 2026-04-20 00:33 | 44.44555 | -121.67715 | 32912 ft | 417 kts | 172° |
| 2026-04-20 00:33 | 44.38822 | -121.66428 | 32917 ft | 416 kts | 172° |
| 2026-04-20 00:34 | 44.33146 | -121.65156 | 32915 ft | 416 kts | 172° |
| 2026-04-20 00:34 | 44.27428 | -121.63843 | 32914 ft | 416 kts | 172° |
| 2026-04-20 00:35 | 44.21712 | -121.62509 | 32911 ft | 415 kts | 172° |
| 2026-04-20 00:35 | 44.16015 | -121.61186 | 32913 ft | 416 kts | 172° |
| 2026-04-20 00:36 | 44.10334 | -121.59872 | 32917 ft | 416 kts | 172° |
| 2026-04-20 00:36 | 44.04602 | -121.58549 | 32916 ft | 417 kts | 172° |
| 2026-04-20 00:37 | 43.98866 | -121.57228 | 32906 ft | 417 kts | 172° |
| 2026-04-20 00:37 | 43.93159 | -121.55916 | 32908 ft | 418 kts | 173° |
| 2026-04-20 00:38 | 43.87415 | -121.54598 | 32905 ft | 418 kts | 173° |
| 2026-04-20 00:38 | 43.81705 | -121.53290 | 32909 ft | 418 kts | 173° |
| 2026-04-20 00:39 | 43.75960 | -121.51978 | 32903 ft | 417 kts | 173° |
| 2026-04-20 00:39 | 43.70232 | -121.50671 | 32913 ft | 416 kts | 173° |
| 2026-04-20 00:40 | 43.64516 | -121.49369 | 32913 ft | 416 kts | 173° |
| 2026-04-20 00:40 | 43.58807 | -121.48072 | 32913 ft | 416 kts | 173° |
| 2026-04-20 00:41 | 43.53125 | -121.46783 | 32916 ft | 415 kts | 173° |
| 2026-04-20 00:41 | 43.47420 | -121.45491 | 32915 ft | 415 kts | 173° |
| 2026-04-20 00:42 | 43.41712 | -121.44201 | 32922 ft | 415 kts | 173° |
| 2026-04-20 00:42 | 43.35995 | -121.42912 | 32918 ft | 416 kts | 173° |
| 2026-04-20 00:43 | 43.30275 | -121.41625 | 32911 ft | 417 kts | 173° |
| 2026-04-20 00:43 | 43.24578 | -121.40344 | 32921 ft | 417 kts | 173° |
| 2026-04-20 00:44 | 43.18837 | -121.39057 | 32922 ft | 418 kts | 173° |
| 2026-04-20 00:44 | 43.13091 | -121.37770 | 32922 ft | 418 kts | 173° |
| 2026-04-20 00:45 | 43.08299 | -121.36699 | 32915 ft | 419 kts | 173° |
| 2026-04-20 00:45 | 43.02549 | -121.35416 | 32922 ft | 419 kts | 173° |
| 2026-04-20 00:46 | 42.96774 | -121.34129 | 32918 ft | 419 kts | 173° |
| 2026-04-20 00:46 | 42.91057 | -121.32858 | 32925 ft | 419 kts | 173° |
| 2026-04-20 00:47 | 42.85253 | -121.31573 | 32912 ft | 420 kts | 173° |
| 2026-04-20 00:47 | 42.79497 | -121.30302 | 32915 ft | 420 kts | 173° |
| 2026-04-20 00:48 | 42.73719 | -121.29028 | 32918 ft | 421 kts | 173° |
| 2026-04-20 00:48 | 42.67930 | -121.27752 | 32914 ft | 421 kts | 173° |
| 2026-04-20 00:49 | 42.62185 | -121.26489 | 32911 ft | 421 kts | 173° |
| 2026-04-20 00:49 | 42.56398 | -121.25219 | 32916 ft | 421 kts | 173° |
| 2026-04-20 00:50 | 42.50605 | -121.23950 | 32911 ft | 421 kts | 173° |
| 2026-04-20 00:50 | 42.44814 | -121.22684 | 32913 ft | 421 kts | 173° |
| 2026-04-20 00:51 | 42.39022 | -121.21420 | 32910 ft | 421 kts | 173° |
| 2026-04-20 00:51 | 42.33238 | -121.20160 | 32902 ft | 421 kts | 173° |
| 2026-04-20 00:52 | 42.27496 | -121.18911 | 32909 ft | 420 kts | 173° |
| 2026-04-20 00:52 | 42.21723 | -121.17659 | 32904 ft | 420 kts | 173° |
| 2026-04-20 00:53 | 42.15954 | -121.16409 | 32907 ft | 420 kts | 173° |
| 2026-04-20 00:53 | 42.10181 | -121.15161 | 32905 ft | 420 kts | 173° |
| 2026-04-20 00:54 | 42.04416 | -121.13916 | 32903 ft | 420 kts | 173° |
| 2026-04-20 00:54 | 41.98634 | -121.12670 | 32897 ft | 419 kts | 173° |
| 2026-04-20 00:55 | 41.92904 | -121.11439 | 32896 ft | 420 kts | 173° |
| 2026-04-20 00:55 | 41.87130 | -121.10200 | 32893 ft | 420 kts | 173° |
| 2026-04-20 00:56 | 41.81354 | -121.08961 | 32890 ft | 420 kts | 174° |
| 2026-04-20 00:56 | 41.75597 | -121.07730 | 32891 ft | 421 kts | 173° |
| 2026-04-20 00:57 | 41.69809 | -121.06492 | 32889 ft | 421 kts | 174° |
| 2026-04-20 00:57 | 41.64014 | -121.05255 | 32894 ft | 422 kts | 174° |
| 2026-04-20 00:58 | 41.58202 | -121.04019 | 32898 ft | 423 kts | 174° |
| 2026-04-20 00:58 | 41.52390 | -121.02785 | 32905 ft | 424 kts | 174° |
| 2026-04-20 00:59 | 41.46580 | -121.01553 | 32905 ft | 425 kts | 174° |
| 2026-04-20 00:59 | 41.40716 | -121.00313 | 32900 ft | 427 kts | 174° |
| 2026-04-20 01:00 | 41.34833 | -120.99070 | 32901 ft | 428 kts | 174° |
| 2026-04-20 01:00 | 41.28929 | -120.97826 | 32898 ft | 429 kts | 174° |
| 2026-04-20 01:01 | 41.23011 | -120.96580 | 32891 ft | 430 kts | 174° |
| 2026-04-20 01:01 | 41.17083 | -120.95335 | 32890 ft | 431 kts | 174° |
| 2026-04-20 01:02 | 41.11205 | -120.94102 | 32899 ft | 430 kts | 174° |
| 2026-04-20 01:02 | 41.05301 | -120.92866 | 32902 ft | 429 kts | 174° |
| 2026-04-20 01:03 | 40.99404 | -120.91683 | 32904 ft | 427 kts | 177° |
| 2026-04-20 01:03 | 40.93490 | -120.91139 | 32912 ft | 425 kts | 180° |
| 2026-04-20 01:04 | 40.87587 | -120.90730 | 32917 ft | 424 kts | 180° |
| 2026-04-20 01:04 | 40.81730 | -120.90303 | 32925 ft | 423 kts | 179° |
| 2026-04-20 01:05 | 40.75848 | -120.89849 | 32919 ft | 423 kts | 179° |
| 2026-04-20 01:05 | 40.69953 | -120.89381 | 32917 ft | 424 kts | 179° |
| 2026-04-20 01:06 | 40.64095 | -120.88915 | 32922 ft | 424 kts | 179° |
| 2026-04-20 01:06 | 40.58180 | -120.88446 | 33070 ft | 428 kts | 179° |
| 2026-04-20 01:06 | 40.55202 | -120.88209 | 33411 ft | 426 kts | 180° |
| 2026-04-20 01:07 | 40.52245 | -120.87973 | 33774 ft | 424 kts | 180° |
| 2026-04-20 01:07 | 40.49336 | -120.87742 | 33998 ft | 424 kts | 180° |
| 2026-04-20 01:07 | 40.46380 | -120.87509 | 34186 ft | 425 kts | 180° |
| 2026-04-20 01:07 | 40.43427 | -120.87275 | 34405 ft | 425 kts | 180° |
| 2026-04-20 01:08 | 40.40483 | -120.87042 | 34664 ft | 423 kts | 180° |
| 2026-04-20 01:08 | 40.37548 | -120.86810 | 34873 ft | 420 kts | 180° |
| 2026-04-20 01:08 | 40.34624 | -120.86579 | 34924 ft | 422 kts | 180° |
| 2026-04-20 01:09 | 40.28736 | -120.86117 | 34920 ft | 424 kts | 180° |
| 2026-04-20 01:09 | 40.22856 | -120.85654 | 34936 ft | 423 kts | 180° |
| 2026-04-20 01:10 | 40.17024 | -120.85196 | 34929 ft | 422 kts | 180° |
| 2026-04-20 01:10 | 40.08230 | -120.84507 | 34916 ft | 421 kts | 180° |
| 2026-04-20 01:11 | 40.02409 | -120.84052 | 34915 ft | 421 kts | 180° |
| 2026-04-20 01:11 | 39.96568 | -120.83603 | 34920 ft | 421 kts | 181° |
| 2026-04-20 01:12 | 39.90704 | -120.83153 | 34917 ft | 421 kts | 180° |
| 2026-04-20 01:12 | 39.84841 | -120.82699 | 34914 ft | 422 kts | 180° |
| 2026-04-20 01:13 | 39.78970 | -120.82243 | 34918 ft | 423 kts | 181° |
| 2026-04-20 01:13 | 39.73118 | -120.81790 | 34924 ft | 424 kts | 181° |
| 2026-04-20 01:14 | 39.67203 | -120.81333 | 34914 ft | 426 kts | 181° |
| 2026-04-20 01:14 | 39.61268 | -120.80874 | 34925 ft | 428 kts | 181° |
| 2026-04-20 01:15 | 39.55308 | -120.80415 | 34945 ft | 429 kts | 181° |
| 2026-04-20 01:15 | 39.49372 | -120.79957 | 34968 ft | 429 kts | 181° |
| 2026-04-20 01:16 | 39.43364 | -120.79495 | 34997 ft | 430 kts | 181° |
| 2026-04-20 01:16 | 39.37417 | -120.79039 | 35018 ft | 430 kts | 181° |
| 2026-04-20 01:17 | 39.31427 | -120.78580 | 35021 ft | 431 kts | 181° |
| 2026-04-20 01:17 | 39.25442 | -120.78123 | 35025 ft | 431 kts | 181° |
| 2026-04-20 01:18 | 39.19458 | -120.77666 | 35024 ft | 430 kts | 181° |
| 2026-04-20 01:18 | 39.13513 | -120.77213 | 34996 ft | 431 kts | 181° |
| 2026-04-20 01:19 | 39.07515 | -120.76757 | 34971 ft | 430 kts | 181° |
| 2026-04-20 01:19 | 39.01518 | -120.76301 | 34906 ft | 431 kts | 181° |
| 2026-04-20 01:20 | 38.95527 | -120.75848 | 34918 ft | 431 kts | 181° |
| 2026-04-20 01:20 | 38.89580 | -120.75397 | 34937 ft | 431 kts | 181° |
| 2026-04-20 01:21 | 38.83568 | -120.74942 | 34944 ft | 431 kts | 181° |
| 2026-04-20 01:21 | 38.77569 | -120.74490 | 34959 ft | 432 kts | 181° |
| 2026-04-20 01:22 | 38.71562 | -120.74038 | 34953 ft | 432 kts | 181° |
| 2026-04-20 01:22 | 38.65586 | -120.73589 | 34953 ft | 433 kts | 181° |
| 2026-04-20 01:23 | 38.59546 | -120.73129 | 34954 ft | 437 kts | 181° |
| 2026-04-20 01:23 | 38.53460 | -120.72669 | 34903 ft | 438 kts | 181° |
| 2026-04-20 01:24 | 38.47385 | -120.72213 | 34912 ft | 436 kts | 181° |
| 2026-04-20 01:24 | 38.41331 | -120.71760 | 34914 ft | 435 kts | 181° |
| 2026-04-20 01:25 | 38.35321 | -120.71313 | 34913 ft | 435 kts | 181° |
| 2026-04-20 01:25 | 38.29267 | -120.70863 | 34913 ft | 435 kts | 182° |
| 2026-04-20 01:26 | 38.23216 | -120.70414 | 34910 ft | 435 kts | 182° |
| 2026-04-20 01:26 | 38.17197 | -120.69968 | 34909 ft | 436 kts | 182° |
| 2026-04-20 01:27 | 38.11125 | -120.69518 | 34903 ft | 436 kts | 182° |
| 2026-04-20 01:27 | 38.05064 | -120.69070 | 34905 ft | 436 kts | 182° |
| 2026-04-20 01:28 | 37.98986 | -120.68622 | 34898 ft | 437 kts | 182° |
| 2026-04-20 01:28 | 37.92913 | -120.68175 | 34882 ft | 437 kts | 182° |
| 2026-04-20 01:29 | 37.86868 | -120.67730 | 34874 ft | 438 kts | 182° |
| 2026-04-20 01:29 | 37.80773 | -120.67283 | 34853 ft | 438 kts | 182° |
| 2026-04-20 01:30 | 37.74684 | -120.66837 | 34847 ft | 439 kts | 182° |
| 2026-04-20 01:30 | 37.68579 | -120.66390 | 34845 ft | 439 kts | 182° |
| 2026-04-20 01:31 | 37.62468 | -120.65944 | 34843 ft | 440 kts | 182° |
| 2026-04-20 01:31 | 37.57381 | -120.65572 | 34846 ft | 440 kts | 182° |
| 2026-04-20 01:32 | 37.50253 | -120.65053 | 34845 ft | 441 kts | 182° |
| 2026-04-20 01:32 | 37.45135 | -120.64681 | 34846 ft | 442 kts | 182° |
| 2026-04-20 01:33 | 37.38979 | -120.64234 | 34844 ft | 443 kts | 182° |
| 2026-04-20 01:33 | 37.32819 | -120.63702 | 34842 ft | 446 kts | 177° |
| 2026-04-20 01:34 | 37.26718 | -120.61883 | 34839 ft | 452 kts | 171° |
| 2026-04-20 01:34 | 37.20674 | -120.59850 | 34841 ft | 453 kts | 171° |
| 2026-04-20 01:35 | 37.14567 | -120.57827 | 34841 ft | 453 kts | 171° |
| 2026-04-20 01:35 | 37.08467 | -120.55839 | 34857 ft | 453 kts | 171° |
| 2026-04-20 01:36 | 37.02390 | -120.53874 | 34850 ft | 453 kts | 171° |
| 2026-04-20 01:36 | 36.96268 | -120.51899 | 34856 ft | 454 kts | 171° |
| 2026-04-20 01:37 | 36.90144 | -120.49927 | 34867 ft | 454 kts | 171° |
| 2026-04-20 01:37 | 36.84024 | -120.47959 | 34868 ft | 454 kts | 171° |
| 2026-04-20 01:38 | 36.77930 | -120.46002 | 34870 ft | 454 kts | 171° |
| 2026-04-20 01:38 | 36.71799 | -120.44036 | 34875 ft | 455 kts | 171° |
| 2026-04-20 01:39 | 36.65658 | -120.42071 | 34878 ft | 456 kts | 171° |
| 2026-04-20 01:39 | 36.59509 | -120.40106 | 34885 ft | 456 kts | 171° |
| 2026-04-20 01:40 | 36.53390 | -120.38154 | 34888 ft | 457 kts | 171° |
| 2026-04-20 01:40 | 36.47217 | -120.36188 | 34893 ft | 458 kts | 171° |
| 2026-04-20 01:41 | 36.41030 | -120.34221 | 34888 ft | 459 kts | 171° |
| 2026-04-20 01:41 | 36.34834 | -120.32254 | 34895 ft | 459 kts | 171° |
| 2026-04-20 01:42 | 36.28626 | -120.30286 | 34893 ft | 460 kts | 171° |
| 2026-04-20 01:42 | 36.22422 | -120.28323 | 34893 ft | 461 kts | 171° |
| 2026-04-20 01:43 | 36.16236 | -120.26369 | 34898 ft | 461 kts | 171° |
| 2026-04-20 01:43 | 36.10011 | -120.24406 | 34905 ft | 461 kts | 171° |
| 2026-04-20 01:44 | 36.03787 | -120.22446 | 34912 ft | 462 kts | 171° |
| 2026-04-20 01:44 | 35.97561 | -120.20488 | 34915 ft | 462 kts | 171° |
| 2026-04-20 01:45 | 35.91328 | -120.18532 | 34910 ft | 462 kts | 171° |
| 2026-04-20 01:45 | 35.85096 | -120.16579 | 34918 ft | 462 kts | 171° |
| 2026-04-20 01:46 | 35.78901 | -120.14641 | 34925 ft | 462 kts | 171° |
| 2026-04-20 01:46 | 35.72654 | -120.12689 | 34921 ft | 462 kts | 171° |
| 2026-04-20 01:47 | 35.66432 | -120.10637 | 34910 ft | 467 kts | 163° |
| 2026-04-20 01:47 | 35.60749 | -120.06599 | 34918 ft | 474 kts | 152° |
| 2026-04-20 01:48 | 35.55180 | -120.02237 | 34915 ft | 474 kts | 152° |
| 2026-04-20 01:48 | 35.49613 | -119.97982 | 34920 ft | 474 kts | 153° |
| 2026-04-20 01:49 | 35.43979 | -119.93742 | 34908 ft | 475 kts | 153° |
| 2026-04-20 01:49 | 35.38333 | -119.89506 | 34916 ft | 476 kts | 153° |
| 2026-04-20 01:50 | 35.32686 | -119.85271 | 34909 ft | 476 kts | 153° |
| 2026-04-20 01:50 | 35.27067 | -119.80945 | 34903 ft | 479 kts | 148° |
| 2026-04-20 01:51 | 35.21753 | -119.75990 | 34908 ft | 481 kts | 145° |
| 2026-04-20 01:51 | 35.19143 | -119.73456 | 34507 ft | 488 kts | 145° |
| 2026-04-20 01:51 | 35.16456 | -119.70871 | 33802 ft | 492 kts | 145° |
| 2026-04-20 01:52 | 35.13757 | -119.68306 | 32935 ft | 488 kts | 145° |
| 2026-04-20 01:52 | 35.11085 | -119.65794 | 32131 ft | 483 kts | 146° |
| 2026-04-20 01:52 | 35.08427 | -119.63313 | 31429 ft | 475 kts | 146° |
| 2026-04-20 01:52 | 35.05828 | -119.60895 | 30894 ft | 465 kts | 146° |
| 2026-04-20 01:53 | 35.03274 | -119.58524 | 30327 ft | 456 kts | 146° |
| 2026-04-20 01:53 | 35.00770 | -119.56201 | 29774 ft | 448 kts | 146° |
| 2026-04-20 01:53 | 34.98313 | -119.53922 | 29159 ft | 439 kts | 146° |
| 2026-04-20 01:53 | 34.95906 | -119.51690 | 28640 ft | 430 kts | 146° |
| 2026-04-20 01:54 | 34.93575 | -119.49529 | 28114 ft | 422 kts | 146° |
| 2026-04-20 01:54 | 34.91256 | -119.47383 | 27598 ft | 415 kts | 146° |
| 2026-04-20 01:54 | 34.88948 | -119.45293 | 27364 ft | 415 kts | 146° |
| 2026-04-20 01:54 | 34.86563 | -119.43167 | 26864 ft | 434 kts | 146° |
| 2026-04-20 01:55 | 34.84112 | -119.40988 | 26336 ft | 434 kts | 146° |
| 2026-04-20 01:55 | 34.81681 | -119.38820 | 25805 ft | 431 kts | 146° |
| 2026-04-20 01:55 | 34.79300 | -119.36691 | 25268 ft | 427 kts | 146° |
| 2026-04-20 01:55 | 34.76911 | -119.34557 | 24757 ft | 424 kts | 146° |
| 2026-04-20 01:56 | 34.74569 | -119.32466 | 24530 ft | 413 kts | 146° |
| 2026-04-20 01:56 | 34.72246 | -119.30424 | 24086 ft | 409 kts | 147° |
| 2026-04-20 01:56 | 34.69938 | -119.28414 | 23610 ft | 406 kts | 147° |
| 2026-04-20 01:56 | 34.67646 | -119.26417 | 23041 ft | 404 kts | 147° |
| 2026-04-20 01:57 | 34.65372 | -119.24435 | 22510 ft | 400 kts | 147° |
| 2026-04-20 01:57 | 34.63119 | -119.22480 | 22072 ft | 395 kts | 147° |
| 2026-04-20 01:57 | 34.60887 | -119.20557 | 21561 ft | 392 kts | 147° |
| 2026-04-20 01:57 | 34.58668 | -119.18647 | 21085 ft | 389 kts | 147° |
| 2026-04-20 01:58 | 34.56463 | -119.16750 | 20587 ft | 386 kts | 147° |
| 2026-04-20 01:58 | 34.54328 | -119.14882 | 20171 ft | 381 kts | 146° |
| 2026-04-20 01:58 | 34.52194 | -119.12986 | 19703 ft | 379 kts | 146° |
| 2026-04-20 01:58 | 34.50078 | -119.11103 | 19233 ft | 376 kts | 146° |
| 2026-04-20 01:59 | 34.47972 | -119.09234 | 18765 ft | 374 kts | 146° |
| 2026-04-20 01:59 | 34.45874 | -119.07377 | 18303 ft | 372 kts | 146° |
| 2026-04-20 01:59 | 34.43790 | -119.05538 | 17738 ft | 370 kts | 147° |
| 2026-04-20 01:59 | 34.41707 | -119.03726 | 17304 ft | 365 kts | 147° |
| 2026-04-20 02:00 | 34.39645 | -119.01946 | 16842 ft | 362 kts | 147° |
| 2026-04-20 02:00 | 34.37674 | -119.00242 | 16374 ft | 359 kts | 147° |
| 2026-04-20 02:00 | 34.35654 | -118.98496 | 15914 ft | 356 kts | 147° |
| 2026-04-20 02:00 | 34.33675 | -118.96776 | 15461 ft | 353 kts | 146° |
| 2026-04-20 02:01 | 34.31711 | -118.95003 | 15006 ft | 350 kts | 145° |
| 2026-04-20 02:01 | 34.29775 | -118.93231 | 14570 ft | 347 kts | 145° |
| 2026-04-20 02:01 | 34.27856 | -118.91482 | 14134 ft | 345 kts | 145° |
| 2026-04-20 02:01 | 34.25939 | -118.89741 | 13680 ft | 342 kts | 145° |
| 2026-04-20 02:02 | 34.24047 | -118.88014 | 13198 ft | 339 kts | 144° |
| 2026-04-20 02:02 | 34.22179 | -118.86294 | 12799 ft | 334 kts | 144° |
| 2026-04-20 02:02 | 34.20874 | -118.85092 | 12727 ft | 325 kts | 144° |
| 2026-04-20 02:02 | 34.19104 | -118.83464 | 12575 ft | 314 kts | 145° |
| 2026-04-20 02:03 | 34.17398 | -118.81898 | 12441 ft | 303 kts | 145° |
| 2026-04-20 02:03 | 34.15765 | -118.80347 | 12164 ft | 298 kts | 142° |
| 2026-04-20 02:03 | 34.14239 | -118.78709 | 11842 ft | 295 kts | 140° |
| 2026-04-20 02:03 | 34.12713 | -118.77017 | 11497 ft | 293 kts | 140° |
| 2026-04-20 02:04 | 34.11234 | -118.75378 | 11150 ft | 292 kts | 140° |
| 2026-04-20 02:04 | 34.09736 | -118.73731 | 10797 ft | 290 kts | 140° |
| 2026-04-20 02:04 | 34.08241 | -118.72097 | 10470 ft | 289 kts | 140° |
| 2026-04-20 02:04 | 34.06752 | -118.70479 | 10192 ft | 286 kts | 140° |
| 2026-04-20 02:05 | 34.05298 | -118.68900 | 10050 ft | 277 kts | 140° |
| 2026-04-20 02:05 | 34.03890 | -118.67336 | 9738 ft | 276 kts | 134° |
| 2026-04-20 02:05 | 34.02947 | -118.65323 | 9400 ft | 279 kts | 110° |
| 2026-04-20 02:05 | 34.02574 | -118.63032 | 9077 ft | 279 kts | 99° |
| 2026-04-20 02:06 | 34.02373 | -118.60708 | 8739 ft | 278 kts | 98° |
| 2026-04-20 02:06 | 34.02186 | -118.58442 | 8402 ft | 273 kts | 98° |
| 2026-04-20 02:06 | 34.01989 | -118.56180 | 8075 ft | 267 kts | 99° |
| 2026-04-20 02:06 | 34.01793 | -118.53987 | 7837 ft | 257 kts | 99° |
| 2026-04-20 02:07 | 34.01600 | -118.51880 | 7620 ft | 248 kts | 99° |
| 2026-04-20 02:07 | 34.01410 | -118.49854 | 7397 ft | 239 kts | 99° |
| 2026-04-20 02:07 | 34.01226 | -118.47896 | 7202 ft | 230 kts | 99° |
| 2026-04-20 02:07 | 34.01055 | -118.46017 | 7006 ft | 221 kts | 97° |
| 2026-04-20 02:08 | 34.01219 | -118.44212 | 6858 ft | 218 kts | 79° |
| 2026-04-20 02:08 | 34.01571 | -118.42383 | 6224 ft | 233 kts | 81° |
| 2026-04-20 02:08 | 34.01908 | -118.40490 | 5595 ft | 239 kts | 81° |
| 2026-04-20 02:08 | 34.02252 | -118.38510 | 4938 ft | 244 kts | 80° |
| 2026-04-20 02:09 | 34.02435 | -118.36526 | 4551 ft | 230 kts | 100° |
| 2026-04-20 02:09 | 34.01872 | -118.34812 | 4236 ft | 213 kts | 123° |
| 2026-04-20 02:09 | 34.00980 | -118.33446 | 3898 ft | 203 kts | 132° |
| 2026-04-20 02:09 | 34.00053 | -118.32209 | 3561 ft | 195 kts | 133° |
| 2026-04-20 02:10 | 33.98997 | -118.31265 | 3211 ft | 186 kts | 161° |
| 2026-04-20 02:10 | 33.97773 | -118.31138 | 2901 ft | 177 kts | 191° |
| 2026-04-20 02:10 | 33.96696 | -118.31784 | 2537 ft | 172 kts | 222° |
| 2026-04-20 02:10 | 33.96002 | -118.32937 | 2132 ft | 167 kts | 246° |
| 2026-04-20 02:11 | 33.95806 | -118.34234 | 1807 ft | 154 kts | 263° |
| 2026-04-20 02:11 | 33.95699 | -118.35464 | 1383 ft | 142 kts | 261° |
| 2026-04-20 02:11 | 33.95574 | -118.36631 | 994 ft | 138 kts | 263° |
| 2026-04-20 02:11 | 33.95469 | -118.37763 | 615 ft | 132 kts | 262° |
| 2026-04-20 02:12 | 33.95349 | -118.38889 | 398 ft | 141 kts | 262° |
| 2026-04-20 02:12 | 33.95225 | -118.40080 | 187 ft | 143 kts | 263° |
| 2026-04-20 02:12 | 33.95109 | -118.41171 | 106 ft | 112 kts | 264° |
| 2026-04-20 02:12 | 33.95041 | -118.41841 | 107 ft | 51 kts | 263° |
| 2026-04-20 02:13 | 33.94986 | -118.42111 | 105 ft | 30 kts | 243° |
| 2026-04-20 02:13 | 33.94902 | -118.42236 | 103 ft | 8 kts | 221° |
| 2026-04-20 02:13 | 33.94870 | -118.42263 | 104 ft | 0 kts | 206° |
| 2026-04-20 02:17 | 33.94856 | -118.42269 | 105 ft | 7 kts | 199° |
| 2026-04-20 02:18 | 33.94788 | -118.42281 | 105 ft | 11 kts | 181° |
| 2026-04-20 02:18 | 33.94729 | -118.42275 | 101 ft | 9 kts | 172° |
| 2026-04-20 02:18 | 33.94696 | -118.42269 | 99 ft | 0 kts | 172° |
| 2026-04-20 02:18 | 33.94690 | -118.42267 | 100 ft | 0 kts | 161° |
| 2026-04-20 02:19 | 33.94689 | -118.42265 | 100 ft | 0 kts | 147° |
| 2026-04-20 02:19 | 33.94688 | -118.42262 | 100 ft | 1 kts | 123° |
| 2026-04-20 02:19 | 33.94686 | -118.42239 | 98 ft | 8 kts | 95° |
| 2026-04-20 02:19 | 33.94694 | -118.42122 | 98 ft | 18 kts | 83° |
| 2026-04-20 02:20 | 33.94704 | -118.42025 | 98 ft | 18 kts | 83° |
| 2026-04-20 02:20 | 33.94718 | -118.41877 | 98 ft | 11 kts | 84° |
| 2026-04-20 02:20 | 33.94727 | -118.41786 | 97 ft | 11 kts | 82° |
| 2026-04-20 02:20 | 33.94736 | -118.41711 | 97 ft | 11 kts | 83° |
| 2026-04-20 02:21 | 33.94753 | -118.41541 | 98 ft | 10 kts | 82° |
| 2026-04-20 02:21 | 33.94759 | -118.41487 | 99 ft | 10 kts | 83° |
| 2026-04-20 02:21 | 33.94751 | -118.41410 | 98 ft | 10 kts | 132° |
| 2026-04-20 02:22 | 33.94687 | -118.41384 | 96 ft | 10 kts | 169° |
| 2026-04-20 02:22 | 33.94611 | -118.41371 | 94 ft | 13 kts | 173° |
| 2026-04-20 02:22 | 33.94508 | -118.41356 | 95 ft | 16 kts | 173° |
| 2026-04-20 02:22 | 33.94405 | -118.41341 | 95 ft | 14 kts | 173° |
| 2026-04-20 02:23 | 33.94313 | -118.41327 | 94 ft | 13 kts | 173° |
| 2026-04-20 02:23 | 33.94224 | -118.41314 | 94 ft | 13 kts | 173° |
| 2026-04-20 02:23 | 33.94137 | -118.41301 | 94 ft | 12 kts | 172° |
| 2026-04-20 02:23 | 33.94053 | -118.41288 | 97 ft | 12 kts | 173° |
| 2026-04-20 02:24 | 33.93970 | -118.41276 | 95 ft | 12 kts | 175° |
| 2026-04-20 02:24 | 33.93889 | -118.41265 | 96 ft | 11 kts | 173° |
| 2026-04-20 02:24 | 33.93811 | -118.41254 | 100 ft | 11 kts | 173° |
| 2026-04-20 02:24 | 33.93758 | -118.41200 | 102 ft | 11 kts | 96° |
| 2026-04-20 02:25 | 33.93764 | -118.41110 | 101 ft | 11 kts | 83° |
| 2026-04-20 02:25 | 33.93773 | -118.41022 | 101 ft | 10 kts | 82° |
| 2026-04-20 02:25 | 33.93782 | -118.40939 | 101 ft | 10 kts | 83° |
| 2026-04-20 02:25 | 33.93790 | -118.40856 | 101 ft | 10 kts | 82° |
| 2026-04-20 02:26 | 33.93799 | -118.40776 | 101 ft | 10 kts | 83° |
| 2026-04-20 02:26 | 33.93806 | -118.40698 | 102 ft | 9 kts | 84° |
| 2026-04-20 02:26 | 33.93814 | -118.40630 | 102 ft | 7 kts | 83° |
| 2026-04-20 02:26 | 33.93818 | -118.40574 | 102 ft | 7 kts | 83° |
| 2026-04-20 02:27 | 33.93825 | -118.40518 | 100 ft | 7 kts | 82° |
| 2026-04-20 02:27 | 33.93830 | -118.40463 | 102 ft | 6 kts | 85° |
| 2026-04-20 02:27 | 33.93834 | -118.40410 | 103 ft | 6 kts | 85° |
| 2026-04-20 02:27 | 33.93841 | -118.40357 | 102 ft | 7 kts | 81° |
| 2026-04-20 02:28 | 33.93874 | -118.40290 | 100 ft | 9 kts | 8° |
| 2026-04-20 02:28 | 33.93956 | -118.40301 | 97 ft | 14 kts | 353° |
| 2026-04-20 02:28 | 33.94057 | -118.40317 | 94 ft | 14 kts | 352° |
| 2026-04-20 02:28 | 33.94125 | -118.40327 | 96 ft | 5 kts | 354° |
| 2026-04-20 02:29 | 33.94137 | -118.40329 | 96 ft | 0 kts | 354° |
| 2026-04-20 02:30 | 33.94138 | -118.40328 | 96 ft | 0 kts | 358° |
| 2026-04-20 02:30 | 33.94140 | -118.40327 | 95 ft | 1 kts | 18° |
| 2026-04-20 02:30 | 33.94141 | -118.40316 | 96 ft | 3 kts | 85° |
| 2026-04-20 02:31 | 33.94143 | -118.40284 | 94 ft | 5 kts | 85° |
| 2026-04-20 02:31 | 33.94144 | -118.40273 | 94 ft | 0 kts | 85° |